sensor_id;sensor_type;location;lat;lon;timestamp;temperature;humidity
21772;DHT22;11047;47.904;8.110;2024-03-08T00:02:04;3.90;99.90
21772;DHT22;11047;47.904;8.110;2024-03-08T00:04:32;3.10;99.90
21772;DHT22;11047;47.904;8.110;2024-03-08T00:06:59;3.80;99.90
21772;DHT22;11047;47.904;8.110;2024-03-08T00:09:26;3.60;99.90
21772;DHT22;11047;47.904;8.110;2024-03-08T00:11:53;4.10;99.90
21772;DHT22;11047;47.904;8.110;2024-03-08T00:14:20;2.90;99.90
21772;DHT22;11047;47.904;8.110;2024-03-08T00:16:47;2.90;99.90
21772;DHT22;11047;47.904;8.110;2024-03-08T00:19:14;2.90;99.90
21772;DHT22;11047;47.904;8.110;2024-03-08T00:21:42;2.90;99.90
21772;DHT22;11047;47.904;8.110;2024-03-08T00:24:09;2.90;99.90
21772;DHT22;11047;47.904;8.110;2024-03-08T00:26:36;2.90;99.90
21772;DHT22;11047;47.904;8.110;2024-03-08T00:29:03;2.90;99.90
21772;DHT22;11047;47.904;8.110;2024-03-08T00:31:30;3.60;99.90
21772;DHT22;11047;47.904;8.110;2024-03-08T00:33:57;2.80;99.90
21772;DHT22;11047;47.904;8.110;2024-03-08T00:36:25;2.80;99.90
21772;DHT22;11047;47.904;8.110;2024-03-08T00:38:53;2.80;99.90
21772;DHT22;11047;47.904;8.110;2024-03-08T00:41:20;3.10;99.90
21772;DHT22;11047;47.904;8.110;2024-03-08T00:43:47;2.80;99.90
21772;DHT22;11047;47.904;8.110;2024-03-08T00:46:14;2.80;99.90
21772;DHT22;11047;47.904;8.110;2024-03-08T00:48:41;2.80;99.90
21772;DHT22;11047;47.904;8.110;2024-03-08T00:51:08;2.90;99.90
21772;DHT22;11047;47.904;8.110;2024-03-08T00:53:35;2.70;99.90
21772;DHT22;11047;47.904;8.110;2024-03-08T00:56:04;2.80;99.90
21772;DHT22;11047;47.904;8.110;2024-03-08T00:58:31;2.70;99.90
21772;DHT22;11047;47.904;8.110;2024-03-08T01:00:57;2.70;99.90
21772;DHT22;11047;47.904;8.110;2024-03-08T01:03:25;2.70;99.90
21772;DHT22;11047;47.904;8.110;2024-03-08T01:05:52;2.70;99.90
21772;DHT22;11047;47.904;8.110;2024-03-08T01:08:18;2.70;99.90
21772;DHT22;11047;47.904;8.110;2024-03-08T01:10:45;2.70;99.90
21772;DHT22;11047;47.904;8.110;2024-03-08T01:13:14;2.70;99.90
21772;DHT22;11047;47.904;8.110;2024-03-08T01:15:40;2.70;99.90
21772;DHT22;11047;47.904;8.110;2024-03-08T01:18:07;2.80;99.90
21772;DHT22;11047;47.904;8.110;2024-03-08T01:20:35;2.80;99.90
21772;DHT22;11047;47.904;8.110;2024-03-08T01:23:02;2.70;99.90
21772;DHT22;11047;47.904;8.110;2024-03-08T01:25:32;2.70;99.90
21772;DHT22;11047;47.904;8.110;2024-03-08T01:27:59;2.70;99.90
21772;DHT22;11047;47.904;8.110;2024-03-08T01:30:27;2.60;99.90
21772;DHT22;11047;47.904;8.110;2024-03-08T01:32:54;2.60;99.90
21772;DHT22;11047;47.904;8.110;2024-03-08T01:35:21;2.60;99.90
21772;DHT22;11047;47.904;8.110;2024-03-08T01:37:48;2.60;99.90
21772;DHT22;11047;47.904;8.110;2024-03-08T01:40:16;2.60;99.90
21772;DHT22;11047;47.904;8.110;2024-03-08T01:42:43;2.50;99.90
21772;DHT22;11047;47.904;8.110;2024-03-08T01:45:10;2.50;99.90
21772;DHT22;11047;47.904;8.110;2024-03-08T01:47:40;2.60;99.90
21772;DHT22;11047;47.904;8.110;2024-03-08T01:50:07;2.50;99.90
21772;DHT22;11047;47.904;8.110;2024-03-08T01:52:35;2.60;99.90
21772;DHT22;11047;47.904;8.110;2024-03-08T01:55:03;2.60;99.90
21772;DHT22;11047;47.904;8.110;2024-03-08T01:57:32;2.60;99.90
21772;DHT22;11047;47.904;8.110;2024-03-08T02:00:01;2.60;99.90
21772;DHT22;11047;47.904;8.110;2024-03-08T02:02:32;2.60;99.90
21772;DHT22;11047;47.904;8.110;2024-03-08T02:05:01;2.60;99.90
21772;DHT22;11047;47.904;8.110;2024-03-08T02:07:28;2.60;99.90
21772;DHT22;11047;47.904;8.110;2024-03-08T02:09:55;2.60;99.90
21772;DHT22;11047;47.904;8.110;2024-03-08T02:12:22;2.60;99.90
21772;DHT22;11047;47.904;8.110;2024-03-08T02:14:49;2.70;99.90
21772;DHT22;11047;47.904;8.110;2024-03-08T02:17:16;2.70;99.90
21772;DHT22;11047;47.904;8.110;2024-03-08T02:19:43;2.50;99.90
21772;DHT22;11047;47.904;8.110;2024-03-08T02:22:11;2.50;99.90
21772;DHT22;11047;47.904;8.110;2024-03-08T02:24:38;2.40;99.90
21772;DHT22;11047;47.904;8.110;2024-03-08T02:27:05;2.50;99.90
21772;DHT22;11047;47.904;8.110;2024-03-08T02:29:33;2.50;99.90
21772;DHT22;11047;47.904;8.110;2024-03-08T02:32:00;2.40;99.90
21772;DHT22;11047;47.904;8.110;2024-03-08T02:34:28;2.30;99.90
21772;DHT22;11047;47.904;8.110;2024-03-08T02:36:57;2.40;99.90
21772;DHT22;11047;47.904;8.110;2024-03-08T02:39:25;1.70;99.90
21772;DHT22;11047;47.904;8.110;2024-03-08T02:41:53;2.40;99.90
21772;DHT22;11047;47.904;8.110;2024-03-08T02:44:20;2.40;99.90
21772;DHT22;11047;47.904;8.110;2024-03-08T02:46:48;2.40;99.90
21772;DHT22;11047;47.904;8.110;2024-03-08T02:49:16;2.40;99.90
21772;DHT22;11047;47.904;8.110;2024-03-08T02:51:42;2.40;99.90
21772;DHT22;11047;47.904;8.110;2024-03-08T02:54:09;2.40;99.90
21772;DHT22;11047;47.904;8.110;2024-03-08T02:56:38;2.40;99.90
21772;DHT22;11047;47.904;8.110;2024-03-08T02:59:04;2.40;99.90
21772;DHT22;11047;47.904;8.110;2024-03-08T03:01:30;2.40;99.90
21772;DHT22;11047;47.904;8.110;2024-03-08T03:03:58;2.40;99.90
21772;DHT22;11047;47.904;8.110;2024-03-08T03:06:24;2.40;99.90
21772;DHT22;11047;47.904;8.110;2024-03-08T03:08:51;2.40;99.90
21772;DHT22;11047;47.904;8.110;2024-03-08T03:11:19;2.30;99.90
21772;DHT22;11047;47.904;8.110;2024-03-08T03:13:47;2.20;99.90
21772;DHT22;11047;47.904;8.110;2024-03-08T03:16:17;2.30;99.90
21772;DHT22;11047;47.904;8.110;2024-03-08T03:18:45;3.30;99.90
21772;DHT22;11047;47.904;8.110;2024-03-08T03:21:12;2.10;99.90
21772;DHT22;11047;47.904;8.110;2024-03-08T03:23:39;2.10;99.90
21772;DHT22;11047;47.904;8.110;2024-03-08T03:26:07;2.20;99.90
21772;DHT22;11047;47.904;8.110;2024-03-08T03:28:36;2.20;99.90
21772;DHT22;11047;47.904;8.110;2024-03-08T03:31:06;2.20;99.90
21772;DHT22;11047;47.904;8.110;2024-03-08T03:33:33;2.10;99.90
21772;DHT22;11047;47.904;8.110;2024-03-08T03:36:02;2.20;99.90
21772;DHT22;11047;47.904;8.110;2024-03-08T03:38:30;2.20;99.90
21772;DHT22;11047;47.904;8.110;2024-03-08T03:40:57;2.30;99.90
21772;DHT22;11047;47.904;8.110;2024-03-08T03:43:35;2.40;99.90
21772;DHT22;11047;47.904;8.110;2024-03-08T03:46:06;2.20;99.90
21772;DHT22;11047;47.904;8.110;2024-03-08T03:48:36;2.20;99.90
21772;DHT22;11047;47.904;8.110;2024-03-08T03:51:03;2.10;99.90
21772;DHT22;11047;47.904;8.110;2024-03-08T03:53:29;2.10;99.90
21772;DHT22;11047;47.904;8.110;2024-03-08T03:55:56;2.10;99.90
21772;DHT22;11047;47.904;8.110;2024-03-08T03:58:25;2.10;99.90
21772;DHT22;11047;47.904;8.110;2024-03-08T04:00:52;2.00;99.90
21772;DHT22;11047;47.904;8.110;2024-03-08T04:03:20;2.20;99.90
21772;DHT22;11047;47.904;8.110;2024-03-08T04:05:47;2.00;99.90
21772;DHT22;11047;47.904;8.110;2024-03-08T04:08:14;2.20;99.90
21772;DHT22;11047;47.904;8.110;2024-03-08T04:10:42;2.20;99.90
21772;DHT22;11047;47.904;8.110;2024-03-08T04:13:09;2.00;99.90
21772;DHT22;11047;47.904;8.110;2024-03-08T04:15:36;2.30;99.90
21772;DHT22;11047;47.904;8.110;2024-03-08T04:18:03;2.00;99.90
21772;DHT22;11047;47.904;8.110;2024-03-08T04:20:32;2.00;99.90
21772;DHT22;11047;47.904;8.110;2024-03-08T04:22:58;1.90;99.90
21772;DHT22;11047;47.904;8.110;2024-03-08T04:25:25;2.00;99.90
21772;DHT22;11047;47.904;8.110;2024-03-08T04:27:53;1.80;99.90
21772;DHT22;11047;47.904;8.110;2024-03-08T04:30:20;2.00;99.90
21772;DHT22;11047;47.904;8.110;2024-03-08T04:32:47;1.90;99.90
21772;DHT22;11047;47.904;8.110;2024-03-08T04:35:14;1.90;99.90
21772;DHT22;11047;47.904;8.110;2024-03-08T04:37:42;1.80;99.90
21772;DHT22;11047;47.904;8.110;2024-03-08T04:40:11;1.70;99.90
21772;DHT22;11047;47.904;8.110;2024-03-08T04:42:39;1.70;99.90
21772;DHT22;11047;47.904;8.110;2024-03-08T04:45:08;1.90;99.90
21772;DHT22;11047;47.904;8.110;2024-03-08T04:47:36;1.70;99.90
21772;DHT22;11047;47.904;8.110;2024-03-08T04:50:03;1.80;99.90
21772;DHT22;11047;47.904;8.110;2024-03-08T04:52:30;1.70;99.90
21772;DHT22;11047;47.904;8.110;2024-03-08T04:54:59;2.10;99.90
21772;DHT22;11047;47.904;8.110;2024-03-08T04:57:26;1.80;99.90
21772;DHT22;11047;47.904;8.110;2024-03-08T04:59:53;2.00;99.90
21772;DHT22;11047;47.904;8.110;2024-03-08T05:02:20;2.20;99.90
21772;DHT22;11047;47.904;8.110;2024-03-08T05:04:48;1.80;99.90
21772;DHT22;11047;47.904;8.110;2024-03-08T05:07:15;1.80;99.90
21772;DHT22;11047;47.904;8.110;2024-03-08T05:09:41;2.10;99.90
21772;DHT22;11047;47.904;8.110;2024-03-08T05:12:10;1.80;99.90
21772;DHT22;11047;47.904;8.110;2024-03-08T05:14:37;2.20;99.90
21772;DHT22;11047;47.904;8.110;2024-03-08T05:17:05;1.80;99.90
21772;DHT22;11047;47.904;8.110;2024-03-08T05:19:32;1.90;99.90
21772;DHT22;11047;47.904;8.110;2024-03-08T05:21:59;2.40;99.90
21772;DHT22;11047;47.904;8.110;2024-03-08T05:24:26;1.90;99.90
21772;DHT22;11047;47.904;8.110;2024-03-08T05:26:53;2.30;99.90
21772;DHT22;11047;47.904;8.110;2024-03-08T05:29:21;1.90;99.90
21772;DHT22;11047;47.904;8.110;2024-03-08T05:31:50;2.40;99.90
21772;DHT22;11047;47.904;8.110;2024-03-08T05:34:18;1.80;99.90
21772;DHT22;11047;47.904;8.110;2024-03-08T05:36:45;1.90;99.90
21772;DHT22;11047;47.904;8.110;2024-03-08T05:39:12;1.90;99.90
21772;DHT22;11047;47.904;8.110;2024-03-08T05:41:40;1.90;99.90
21772;DHT22;11047;47.904;8.110;2024-03-08T05:44:07;1.90;99.90
21772;DHT22;11047;47.904;8.110;2024-03-08T05:46:35;1.90;99.90
21772;DHT22;11047;47.904;8.110;2024-03-08T05:49:02;1.90;99.90
21772;DHT22;11047;47.904;8.110;2024-03-08T05:51:31;1.90;99.90
21772;DHT22;11047;47.904;8.110;2024-03-08T05:54:00;1.90;99.90
21772;DHT22;11047;47.904;8.110;2024-03-08T05:56:28;1.90;99.90
21772;DHT22;11047;47.904;8.110;2024-03-08T05:58:55;2.00;99.90
21772;DHT22;11047;47.904;8.110;2024-03-08T06:01:22;1.80;99.90
21772;DHT22;11047;47.904;8.110;2024-03-08T06:03:50;1.70;99.90
21772;DHT22;11047;47.904;8.110;2024-03-08T06:06:19;1.70;99.90
21772;DHT22;11047;47.904;8.110;2024-03-08T06:08:47;1.60;99.90
21772;DHT22;11047;47.904;8.110;2024-03-08T06:11:15;1.60;99.90
21772;DHT22;11047;47.904;8.110;2024-03-08T06:13:42;1.50;99.90
21772;DHT22;11047;47.904;8.110;2024-03-08T06:16:09;1.80;99.90
21772;DHT22;11047;47.904;8.110;2024-03-08T06:18:35;1.60;99.90
21772;DHT22;11047;47.904;8.110;2024-03-08T06:21:04;1.60;99.90
21772;DHT22;11047;47.904;8.110;2024-03-08T06:23:31;1.60;99.90
21772;DHT22;11047;47.904;8.110;2024-03-08T06:25:58;1.60;99.90
21772;DHT22;11047;47.904;8.110;2024-03-08T06:28:25;1.60;99.90
21772;DHT22;11047;47.904;8.110;2024-03-08T06:30:52;1.70;99.90
21772;DHT22;11047;47.904;8.110;2024-03-08T06:33:19;1.70;99.90
21772;DHT22;11047;47.904;8.110;2024-03-08T06:35:46;1.60;99.90
21772;DHT22;11047;47.904;8.110;2024-03-08T06:38:14;1.70;99.90
21772;DHT22;11047;47.904;8.110;2024-03-08T06:40:42;1.70;99.90
21772;DHT22;11047;47.904;8.110;2024-03-08T06:43:09;1.70;99.90
21772;DHT22;11047;47.904;8.110;2024-03-08T06:45:41;1.70;99.90
21772;DHT22;11047;47.904;8.110;2024-03-08T06:48:16;1.70;99.90
21772;DHT22;11047;47.904;8.110;2024-03-08T06:50:54;1.70;99.90
21772;DHT22;11047;47.904;8.110;2024-03-08T06:53:23;1.70;99.90
21772;DHT22;11047;47.904;8.110;2024-03-08T06:55:50;1.70;99.90
21772;DHT22;11047;47.904;8.110;2024-03-08T06:58:17;1.70;99.90
21772;DHT22;11047;47.904;8.110;2024-03-08T07:00:44;1.80;99.90
21772;DHT22;11047;47.904;8.110;2024-03-08T07:03:12;1.90;99.90
21772;DHT22;11047;47.904;8.110;2024-03-08T07:05:42;1.90;99.90
21772;DHT22;11047;47.904;8.110;2024-03-08T07:08:09;2.00;99.90
21772;DHT22;11047;47.904;8.110;2024-03-08T07:10:38;2.10;99.90
21772;DHT22;11047;47.904;8.110;2024-03-08T07:13:07;2.00;99.90
21772;DHT22;11047;47.904;8.110;2024-03-08T07:15:34;1.90;99.90
21772;DHT22;11047;47.904;8.110;2024-03-08T07:18:01;1.90;99.90
21772;DHT22;11047;47.904;8.110;2024-03-08T07:20:37;1.90;99.90
21772;DHT22;11047;47.904;8.110;2024-03-08T07:23:04;2.10;99.90
21772;DHT22;11047;47.904;8.110;2024-03-08T07:25:31;2.00;99.90
21772;DHT22;11047;47.904;8.110;2024-03-08T07:27:59;2.40;99.90
21772;DHT22;11047;47.904;8.110;2024-03-08T07:30:26;2.10;99.90
21772;DHT22;11047;47.904;8.110;2024-03-08T07:33:11;2.50;99.90
21772;DHT22;11047;47.904;8.110;2024-03-08T07:35:38;2.30;99.90
21772;DHT22;11047;47.904;8.110;2024-03-08T07:38:09;2.20;99.90
21772;DHT22;11047;47.904;8.110;2024-03-08T07:40:47;2.20;99.90
21772;DHT22;11047;47.904;8.110;2024-03-08T07:43:19;2.20;99.90
21772;DHT22;11047;47.904;8.110;2024-03-08T07:45:47;2.10;99.90
21772;DHT22;11047;47.904;8.110;2024-03-08T07:48:14;2.20;99.90
21772;DHT22;11047;47.904;8.110;2024-03-08T07:50:42;2.20;99.90
21772;DHT22;11047;47.904;8.110;2024-03-08T07:53:09;2.20;99.90
21772;DHT22;11047;47.904;8.110;2024-03-08T07:55:36;2.20;99.90
21772;DHT22;11047;47.904;8.110;2024-03-08T07:58:05;2.30;99.90
21772;DHT22;11047;47.904;8.110;2024-03-08T08:00:34;2.20;99.90
21772;DHT22;11047;47.904;8.110;2024-03-08T08:03:19;2.20;99.90
21772;DHT22;11047;47.904;8.110;2024-03-08T08:05:46;2.40;99.90
21772;DHT22;11047;47.904;8.110;2024-03-08T08:08:14;2.30;99.90
21772;DHT22;11047;47.904;8.110;2024-03-08T08:10:41;2.40;99.90
21772;DHT22;11047;47.904;8.110;2024-03-08T08:13:08;2.50;99.90
21772;DHT22;11047;47.904;8.110;2024-03-08T08:15:36;2.70;99.90
21772;DHT22;11047;47.904;8.110;2024-03-08T08:18:03;2.70;99.90
21772;DHT22;11047;47.904;8.110;2024-03-08T08:20:31;2.70;99.90
21772;DHT22;11047;47.904;8.110;2024-03-08T08:22:58;2.80;99.90
21772;DHT22;11047;47.904;8.110;2024-03-08T08:25:25;2.80;99.90
21772;DHT22;11047;47.904;8.110;2024-03-08T08:27:52;2.80;99.90
21772;DHT22;11047;47.904;8.110;2024-03-08T08:30:19;2.90;99.90
21772;DHT22;11047;47.904;8.110;2024-03-08T08:32:51;2.90;99.90
21772;DHT22;11047;47.904;8.110;2024-03-08T08:35:18;3.20;99.90
21772;DHT22;11047;47.904;8.110;2024-03-08T08:37:46;3.40;99.90
21772;DHT22;11047;47.904;8.110;2024-03-08T08:40:13;3.60;99.90
21772;DHT22;11047;47.904;8.110;2024-03-08T08:42:44;3.60;99.90
21772;DHT22;11047;47.904;8.110;2024-03-08T08:45:11;3.70;99.90
21772;DHT22;11047;47.904;8.110;2024-03-08T08:47:38;3.90;99.90
21772;DHT22;11047;47.904;8.110;2024-03-08T08:50:10;4.50;99.90
21772;DHT22;11047;47.904;8.110;2024-03-08T08:52:38;4.70;99.90
21772;DHT22;11047;47.904;8.110;2024-03-08T08:55:05;5.10;99.90
21772;DHT22;11047;47.904;8.110;2024-03-08T08:57:32;5.80;99.90
21772;DHT22;11047;47.904;8.110;2024-03-08T09:00:00;6.70;99.90
21772;DHT22;11047;47.904;8.110;2024-03-08T09:02:27;9.10;99.90
21772;DHT22;11047;47.904;8.110;2024-03-08T09:04:58;11.10;99.90
21772;DHT22;11047;47.904;8.110;2024-03-08T09:07:27;12.10;99.90
21772;DHT22;11047;47.904;8.110;2024-03-08T09:09:54;13.30;99.90
21772;DHT22;11047;47.904;8.110;2024-03-08T09:12:23;13.80;99.90
21772;DHT22;11047;47.904;8.110;2024-03-08T09:14:50;13.90;99.90
21772;DHT22;11047;47.904;8.110;2024-03-08T09:17:23;14.90;99.90
21772;DHT22;11047;47.904;8.110;2024-03-08T09:19:51;15.30;99.90
21772;DHT22;11047;47.904;8.110;2024-03-08T09:22:17;14.80;99.90
21772;DHT22;11047;47.904;8.110;2024-03-08T09:24:46;13.80;99.90
21772;DHT22;11047;47.904;8.110;2024-03-08T09:27:12;13.40;99.90
21772;DHT22;11047;47.904;8.110;2024-03-08T09:29:39;12.80;99.90
21772;DHT22;11047;47.904;8.110;2024-03-08T09:32:06;12.60;99.90
21772;DHT22;11047;47.904;8.110;2024-03-08T09:34:33;12.30;99.90
21772;DHT22;11047;47.904;8.110;2024-03-08T09:37:00;11.90;99.90
21772;DHT22;11047;47.904;8.110;2024-03-08T09:39:29;11.90;99.90
21772;DHT22;11047;47.904;8.110;2024-03-08T09:41:58;11.60;99.90
21772;DHT22;11047;47.904;8.110;2024-03-08T09:44:25;11.20;99.90
21772;DHT22;11047;47.904;8.110;2024-03-08T09:46:54;10.80;99.90
21772;DHT22;11047;47.904;8.110;2024-03-08T09:49:23;10.70;99.90
21772;DHT22;11047;47.904;8.110;2024-03-08T09:51:52;10.50;99.90
21772;DHT22;11047;47.904;8.110;2024-03-08T09:54:19;10.50;99.90
21772;DHT22;11047;47.904;8.110;2024-03-08T09:56:48;10.60;99.90
21772;DHT22;11047;47.904;8.110;2024-03-08T09:59:19;10.40;99.90
21772;DHT22;11047;47.904;8.110;2024-03-08T10:02:04;10.40;99.90
21772;DHT22;11047;47.904;8.110;2024-03-08T10:04:36;10.40;99.90
21772;DHT22;11047;47.904;8.110;2024-03-08T10:07:02;10.40;99.90
21772;DHT22;11047;47.904;8.110;2024-03-08T10:09:29;10.40;99.90
21772;DHT22;11047;47.904;8.110;2024-03-08T10:11:56;10.40;99.90
21772;DHT22;11047;47.904;8.110;2024-03-08T10:14:26;10.30;99.90
21772;DHT22;11047;47.904;8.110;2024-03-08T10:16:53;10.30;99.90
21772;DHT22;11047;47.904;8.110;2024-03-08T10:19:20;10.40;99.90
21772;DHT22;11047;47.904;8.110;2024-03-08T10:21:48;10.50;99.90
21772;DHT22;11047;47.904;8.110;2024-03-08T10:24:15;10.70;99.90
21772;DHT22;11047;47.904;8.110;2024-03-08T10:26:42;10.80;99.90
21772;DHT22;11047;47.904;8.110;2024-03-08T10:29:10;10.70;99.90
21772;DHT22;11047;47.904;8.110;2024-03-08T10:31:44;10.90;99.90
21772;DHT22;11047;47.904;8.110;2024-03-08T10:34:12;10.80;99.90
21772;DHT22;11047;47.904;8.110;2024-03-08T10:36:39;11.00;99.90
21772;DHT22;11047;47.904;8.110;2024-03-08T10:39:22;11.20;99.90
21772;DHT22;11047;47.904;8.110;2024-03-08T10:41:55;11.50;99.90
21772;DHT22;11047;47.904;8.110;2024-03-08T10:44:44;11.60;99.90
21772;DHT22;11047;47.904;8.110;2024-03-08T10:47:22;11.80;99.90
21772;DHT22;11047;47.904;8.110;2024-03-08T10:49:55;11.90;99.90
21772;DHT22;11047;47.904;8.110;2024-03-08T10:52:23;12.00;99.90
21772;DHT22;11047;47.904;8.110;2024-03-08T10:54:52;12.20;99.90
21772;DHT22;11047;47.904;8.110;2024-03-08T10:57:22;12.30;99.90
21772;DHT22;11047;47.904;8.110;2024-03-08T10:59:51;12.40;99.90
21772;DHT22;11047;47.904;8.110;2024-03-08T11:02:19;12.20;99.90
21772;DHT22;11047;47.904;8.110;2024-03-08T11:04:47;12.30;99.90
21772;DHT22;11047;47.904;8.110;2024-03-08T11:07:15;12.30;99.90
21772;DHT22;11047;47.904;8.110;2024-03-08T11:09:46;12.50;99.90
21772;DHT22;11047;47.904;8.110;2024-03-08T11:12:21;12.50;99.90
21772;DHT22;11047;47.904;8.110;2024-03-08T11:14:51;12.50;99.90
21772;DHT22;11047;47.904;8.110;2024-03-08T11:17:26;12.70;99.90
21772;DHT22;11047;47.904;8.110;2024-03-08T11:19:55;12.70;99.90
21772;DHT22;11047;47.904;8.110;2024-03-08T11:22:25;12.90;99.90
21772;DHT22;11047;47.904;8.110;2024-03-08T11:24:58;12.90;99.90
21772;DHT22;11047;47.904;8.110;2024-03-08T11:27:29;13.10;99.90
21772;DHT22;11047;47.904;8.110;2024-03-08T11:30:00;13.20;99.90
21772;DHT22;11047;47.904;8.110;2024-03-08T11:32:38;13.20;99.90
21772;DHT22;11047;47.904;8.110;2024-03-08T11:35:18;13.10;99.90
21772;DHT22;11047;47.904;8.110;2024-03-08T11:37:45;13.10;99.90
21772;DHT22;11047;47.904;8.110;2024-03-08T11:40:13;13.10;99.90
21772;DHT22;11047;47.904;8.110;2024-03-08T11:42:44;13.00;99.90
21772;DHT22;11047;47.904;8.110;2024-03-08T11:45:13;13.10;99.90
21772;DHT22;11047;47.904;8.110;2024-03-08T11:47:43;13.20;99.90
21772;DHT22;11047;47.904;8.110;2024-03-08T11:50:12;13.20;99.90
21772;DHT22;11047;47.904;8.110;2024-03-08T11:52:40;13.40;99.90
21772;DHT22;11047;47.904;8.110;2024-03-08T11:55:08;13.50;99.90
21772;DHT22;11047;47.904;8.110;2024-03-08T11:57:36;13.40;99.90
21772;DHT22;11047;47.904;8.110;2024-03-08T12:00:04;13.50;99.90
21772;DHT22;11047;47.904;8.110;2024-03-08T12:02:33;13.50;99.90
21772;DHT22;11047;47.904;8.110;2024-03-08T12:05:06;13.40;99.90
21772;DHT22;11047;47.904;8.110;2024-03-08T12:07:35;13.40;99.90
21772;DHT22;11047;47.904;8.110;2024-03-08T12:10:16;13.20;99.90
21772;DHT22;11047;47.904;8.110;2024-03-08T12:12:44;13.20;99.90
21772;DHT22;11047;47.904;8.110;2024-03-08T12:15:11;13.20;99.90
21772;DHT22;11047;47.904;8.110;2024-03-08T12:17:39;13.30;99.90
21772;DHT22;11047;47.904;8.110;2024-03-08T12:20:15;13.40;99.90
21772;DHT22;11047;47.904;8.110;2024-03-08T12:22:42;13.40;99.90
21772;DHT22;11047;47.904;8.110;2024-03-08T12:25:11;13.40;99.90
21772;DHT22;11047;47.904;8.110;2024-03-08T12:27:38;13.40;99.90
21772;DHT22;11047;47.904;8.110;2024-03-08T12:30:19;13.30;99.90
21772;DHT22;11047;47.904;8.110;2024-03-08T12:32:53;13.30;99.90
21772;DHT22;11047;47.904;8.110;2024-03-08T12:35:24;13.30;99.90
21772;DHT22;11047;47.904;8.110;2024-03-08T12:37:52;13.20;99.90
21772;DHT22;11047;47.904;8.110;2024-03-08T12:40:26;13.20;99.90
21772;DHT22;11047;47.904;8.110;2024-03-08T12:42:54;13.20;99.90
21772;DHT22;11047;47.904;8.110;2024-03-08T12:45:21;13.10;99.90
21772;DHT22;11047;47.904;8.110;2024-03-08T12:47:49;13.00;99.90
21772;DHT22;11047;47.904;8.110;2024-03-08T12:50:17;13.10;99.90
21772;DHT22;11047;47.904;8.110;2024-03-08T12:52:45;13.10;99.90
21772;DHT22;11047;47.904;8.110;2024-03-08T12:55:12;13.10;99.90
21772;DHT22;11047;47.904;8.110;2024-03-08T12:57:39;13.30;99.90
21772;DHT22;11047;47.904;8.110;2024-03-08T13:00:07;13.40;99.90
21772;DHT22;11047;47.904;8.110;2024-03-08T13:02:39;13.20;99.90
21772;DHT22;11047;47.904;8.110;2024-03-08T13:05:06;13.20;99.90
21772;DHT22;11047;47.904;8.110;2024-03-08T13:07:35;13.30;99.90
21772;DHT22;11047;47.904;8.110;2024-03-08T13:10:08;13.20;99.90
21772;DHT22;11047;47.904;8.110;2024-03-08T13:12:39;13.30;99.90
21772;DHT22;11047;47.904;8.110;2024-03-08T13:15:09;13.20;99.90
21772;DHT22;11047;47.904;8.110;2024-03-08T13:17:40;13.10;99.90
21772;DHT22;11047;47.904;8.110;2024-03-08T13:20:08;13.00;99.90
21772;DHT22;11047;47.904;8.110;2024-03-08T13:22:41;12.80;99.90
21772;DHT22;11047;47.904;8.110;2024-03-08T13:25:10;12.70;99.90
21772;DHT22;11047;47.904;8.110;2024-03-08T13:27:39;12.50;99.90
21772;DHT22;11047;47.904;8.110;2024-03-08T13:30:07;12.40;99.90
21772;DHT22;11047;47.904;8.110;2024-03-08T13:32:38;12.50;99.90
21772;DHT22;11047;47.904;8.110;2024-03-08T13:35:06;12.40;99.90
21772;DHT22;11047;47.904;8.110;2024-03-08T13:37:38;12.50;99.90
21772;DHT22;11047;47.904;8.110;2024-03-08T13:40:07;12.50;99.90
21772;DHT22;11047;47.904;8.110;2024-03-08T13:42:38;12.50;99.90
21772;DHT22;11047;47.904;8.110;2024-03-08T13:45:06;12.40;99.90
21772;DHT22;11047;47.904;8.110;2024-03-08T13:47:34;12.30;99.90
21772;DHT22;11047;47.904;8.110;2024-03-08T13:50:01;12.20;99.90
21772;DHT22;11047;47.904;8.110;2024-03-08T13:52:29;12.20;99.90
21772;DHT22;11047;47.904;8.110;2024-03-08T13:55:01;12.20;99.90
21772;DHT22;11047;47.904;8.110;2024-03-08T13:57:47;12.10;99.90
21772;DHT22;11047;47.904;8.110;2024-03-08T14:00:15;12.00;99.90
21772;DHT22;11047;47.904;8.110;2024-03-08T14:02:42;11.80;99.90
21772;DHT22;11047;47.904;8.110;2024-03-08T14:05:09;11.90;99.90
21772;DHT22;11047;47.904;8.110;2024-03-08T14:07:37;11.90;99.90
21772;DHT22;11047;47.904;8.110;2024-03-08T14:10:05;12.00;99.90
21772;DHT22;11047;47.904;8.110;2024-03-08T14:12:35;12.10;99.90
21772;DHT22;11047;47.904;8.110;2024-03-08T14:18:40;11.90;99.90
21772;DHT22;11047;47.904;8.110;2024-03-08T14:21:07;12.00;99.90
21772;DHT22;11047;47.904;8.110;2024-03-08T14:23:36;11.90;99.90
21772;DHT22;11047;47.904;8.110;2024-03-08T14:26:03;12.00;99.90
21772;DHT22;11047;47.904;8.110;2024-03-08T14:28:32;12.00;99.90
21772;DHT22;11047;47.904;8.110;2024-03-08T14:30:59;11.80;99.90
21772;DHT22;11047;47.904;8.110;2024-03-08T14:33:28;11.80;99.90
21772;DHT22;11047;47.904;8.110;2024-03-08T14:35:57;11.70;99.90
21772;DHT22;11047;47.904;8.110;2024-03-08T14:38:24;11.50;99.90
21772;DHT22;11047;47.904;8.110;2024-03-08T14:40:53;11.40;99.90
21772;DHT22;11047;47.904;8.110;2024-03-08T14:43:20;11.50;99.90
21772;DHT22;11047;47.904;8.110;2024-03-08T14:45:48;11.50;99.90
21772;DHT22;11047;47.904;8.110;2024-03-08T14:48:16;11.50;99.90
21772;DHT22;11047;47.904;8.110;2024-03-08T14:50:43;11.40;99.90
21772;DHT22;11047;47.904;8.110;2024-03-08T14:53:12;11.20;99.90
21772;DHT22;11047;47.904;8.110;2024-03-08T14:55:41;11.10;99.90
21772;DHT22;11047;47.904;8.110;2024-03-08T14:58:28;11.00;99.90
21772;DHT22;11047;47.904;8.110;2024-03-08T15:00:55;10.70;99.90
21772;DHT22;11047;47.904;8.110;2024-03-08T15:03:26;10.50;99.90
21772;DHT22;11047;47.904;8.110;2024-03-08T15:05:54;10.40;99.90
21772;DHT22;11047;47.904;8.110;2024-03-08T15:08:22;10.40;99.90
21772;DHT22;11047;47.904;8.110;2024-03-08T15:10:51;10.20;99.90
21772;DHT22;11047;47.904;8.110;2024-03-08T15:13:19;9.70;99.90
21772;DHT22;11047;47.904;8.110;2024-03-08T15:15:49;10.00;99.90
21772;DHT22;11047;47.904;8.110;2024-03-08T15:18:21;9.90;99.90
21772;DHT22;11047;47.904;8.110;2024-03-08T15:20:52;9.80;99.90
21772;DHT22;11047;47.904;8.110;2024-03-08T15:23:19;9.80;99.90
21772;DHT22;11047;47.904;8.110;2024-03-08T15:25:47;9.80;99.90
21772;DHT22;11047;47.904;8.110;2024-03-08T15:28:15;9.80;99.90
21772;DHT22;11047;47.904;8.110;2024-03-08T15:30:45;9.70;99.90
21772;DHT22;11047;47.904;8.110;2024-03-08T15:33:18;9.70;99.90
21772;DHT22;11047;47.904;8.110;2024-03-08T15:35:50;9.70;99.90
21772;DHT22;11047;47.904;8.110;2024-03-08T15:38:23;9.70;99.90
21772;DHT22;11047;47.904;8.110;2024-03-08T15:40:51;9.80;99.90
21772;DHT22;11047;47.904;8.110;2024-03-08T15:43:22;9.90;99.90
21772;DHT22;11047;47.904;8.110;2024-03-08T15:45:50;10.00;99.90
21772;DHT22;11047;47.904;8.110;2024-03-08T15:48:17;10.00;99.90
21772;DHT22;11047;47.904;8.110;2024-03-08T15:50:44;10.10;99.90
21772;DHT22;11047;47.904;8.110;2024-03-08T15:53:11;10.10;99.90